createdAt,value
2023-04-12T00:00:01.134Z,31.8
2023-04-12T00:10:01.315Z,21.0
2023-04-12T02:35:01.185Z,7.2
2023-04-12T02:45:01.175Z,7.3
2023-04-12T02:55:01.174Z,7.6
2023-04-12T03:30:01.224Z,4.3
2023-04-12T03:35:01.210Z,4.9
2023-04-12T03:45:01.199Z,5.0
2023-04-12T04:25:01.342Z,5.2
2023-04-12T04:30:01.174Z,7.3
2023-04-12T04:40:01.363Z,8.1
2023-04-12T04:45:01.294Z,8.1
2023-04-12T04:50:01.197Z,7.3
2023-04-12T04:55:02.126Z,3.0
2023-04-12T05:20:01.309Z,7.4
2023-04-12T05:30:01.370Z,12.0
2023-04-12T05:35:01.295Z,15.1
2023-04-12T05:40:01.256Z,17.8
2023-04-12T05:45:01.369Z,17.9
2023-04-12T05:50:01.208Z,11.1
2023-04-12T05:55:01.238Z,6.5
2023-04-12T06:00:01.196Z,3.4
2023-04-12T06:20:02.280Z,1.3
2023-04-12T06:25:05.611Z,1.4
2023-04-12T06:30:01.268Z,1.5
2023-04-12T06:35:01.341Z,4.4
2023-04-12T06:40:01.226Z,7.0
2023-04-12T06:50:01.393Z,9.8
2023-04-12T06:55:01.332Z,14.4
2023-04-12T07:00:01.298Z,15.7
2023-04-12T07:05:01.238Z,13.5
2023-04-12T07:10:01.358Z,11.6
2023-04-12T07:15:01.448Z,7.8
2023-04-12T07:20:01.568Z,13.5
2023-04-12T07:25:01.860Z,29.6
2023-04-12T07:30:01.248Z,40.5
2023-04-12T07:35:06.280Z,51.0
2023-04-12T07:40:01.285Z,54.0
2023-04-12T07:45:01.198Z,45.3
2023-04-12T07:50:01.153Z,34.2
2023-04-12T08:00:01.437Z,32.8
2023-04-12T08:05:01.225Z,36.8
2023-04-12T08:10:01.431Z,47.4
2023-04-12T08:15:01.311Z,63.7
2023-04-12T08:20:01.288Z,75.1
2023-04-12T08:25:01.278Z,89.4
2023-04-12T08:30:01.149Z,98.1
2023-04-12T08:35:01.213Z,117.6
2023-04-12T08:40:02.267Z,142.5
2023-04-12T08:50:01.588Z,169.6
2023-04-12T08:55:01.727Z,191.0
2023-04-12T09:00:01.153Z,210.6
2023-04-12T09:05:01.317Z,228.8
2023-04-12T09:10:01.138Z,223.2
2023-04-12T09:15:01.276Z,223.9
2023-04-12T09:20:01.313Z,225.8
2023-04-12T09:25:01.205Z,227.4
2023-04-12T09:30:01.146Z,232.3
2023-04-12T09:35:01.300Z,246.8
2023-04-12T09:40:01.175Z,252.8
2023-04-12T09:45:01.218Z,255.0
2023-04-12T10:05:01.797Z,261.6
2023-04-12T10:10:01.547Z,259.1
2023-04-12T10:15:02.238Z,258.1
2023-04-12T10:20:01.538Z,256.9
2023-04-12T10:25:01.639Z,256.8
2023-04-12T10:30:01.560Z,246.8
2023-04-12T10:45:01.401Z,258.2
2023-04-12T11:05:01.779Z,220.8
2023-04-12T11:10:01.532Z,226.0
2023-04-12T11:15:01.486Z,224.9
2023-04-12T11:20:01.421Z,217.1
2023-04-12T11:25:01.487Z,215.0
2023-04-12T11:30:01.357Z,209.8
2023-04-12T11:35:01.439Z,199.2
2023-04-12T11:40:01.340Z,191.0
2023-04-12T11:45:04.982Z,189.1
2023-04-12T11:50:01.350Z,201.4
2023-04-12T11:55:01.475Z,191.5
2023-04-12T12:00:01.349Z,184.4
2023-04-12T12:05:01.616Z,172.4
2023-04-12T12:10:01.529Z,161.3
2023-04-12T12:15:01.481Z,132.5
2023-04-12T12:20:01.372Z,129.4
2023-04-12T12:30:01.945Z,140.8
2023-04-12T12:35:01.402Z,140.4
2023-04-12T12:40:01.308Z,146.0
2023-04-12T12:45:01.437Z,141.9
2023-04-12T12:50:01.369Z,133.9
2023-04-12T12:55:01.422Z,116.6
2023-04-12T13:00:01.318Z,110.7
2023-04-12T13:05:01.388Z,99.4
2023-04-12T13:10:01.572Z,98.0
2023-04-12T13:15:13.180Z,98.6
2023-04-12T13:20:01.270Z,98.4
2023-04-12T13:25:01.399Z,100.1
2023-04-12T13:30:01.377Z,101.1
2023-04-12T13:35:01.320Z,103.3
2023-04-12T13:40:01.411Z,106.1
2023-04-12T13:45:02.608Z,106.0
2023-04-12T13:50:01.740Z,102.1
2023-04-12T13:55:01.533Z,100.5
2023-04-12T14:00:01.251Z,96.4
2023-04-12T14:05:01.618Z,91.2
2023-04-12T14:10:01.546Z,90.9
2023-04-12T14:15:01.385Z,92.6
2023-04-12T14:20:01.458Z,93.9
2023-04-12T14:25:01.360Z,94.7
2023-04-12T14:30:01.290Z,98.4
2023-04-12T14:35:01.294Z,102.2
2023-04-12T14:40:01.282Z,104.0
2023-04-12T14:45:02.319Z,100.8
2023-04-12T14:50:01.233Z,98.2
2023-04-12T14:55:01.873Z,92.5
2023-04-12T15:00:01.227Z,88.0
2023-04-12T15:05:01.812Z,84.6
2023-04-12T15:10:01.450Z,85.0
2023-04-12T15:15:01.679Z,107.7
2023-04-12T15:20:01.205Z,109.1
2023-04-12T15:25:01.690Z,108.2
2023-04-12T15:30:01.201Z,109.4
2023-04-12T15:35:04.538Z,111.2
2023-04-12T15:40:01.318Z,91.1
2023-04-12T15:45:01.874Z,88.5
2023-04-12T15:50:01.280Z,88.4
2023-04-12T15:55:01.825Z,85.7
2023-04-12T16:00:01.320Z,116.6
2023-04-12T16:05:01.357Z,114.4
2023-04-12T16:10:01.383Z,114.8
2023-04-12T16:15:01.216Z,114.9
2023-04-12T16:20:01.160Z,115.2
2023-04-12T16:25:01.240Z,81.4
2023-04-12T16:30:01.173Z,79.8
2023-04-12T16:45:01.203Z,79.6
2023-04-12T16:50:01.014Z,82.6
2023-04-12T16:55:01.101Z,84.6
2023-04-12T17:00:01.055Z,86.2
2023-04-12T17:05:01.215Z,88.6
2023-04-12T17:10:01.064Z,89.7
2023-04-12T17:15:01.142Z,89.7
2023-04-12T17:20:01.070Z,88.3
2023-04-12T17:25:01.172Z,86.2
2023-04-12T17:30:01.086Z,83.9
2023-04-12T17:35:01.202Z,84.3
2023-04-12T17:40:01.073Z,85.2
2023-04-12T17:45:01.768Z,87.7
2023-04-12T17:50:01.074Z,92.7
2023-04-12T17:55:01.146Z,99.7
2023-04-12T18:00:01.076Z,99.9
2023-04-12T18:05:01.239Z,100.0
2023-04-12T18:10:01.062Z,99.6
2023-04-12T18:15:01.191Z,97.0
2023-04-12T18:20:02.706Z,90.8
2023-04-12T18:25:01.561Z,92.9
2023-04-12T18:30:01.059Z,94.2
2023-04-12T18:35:01.436Z,97.0
2023-04-12T18:40:01.059Z,111.6
2023-04-12T18:45:01.324Z,121.5
2023-04-12T18:50:01.061Z,130.5
2023-04-12T18:55:02.243Z,142.2
2023-04-12T19:00:01.159Z,159.8
2023-04-12T19:05:01.154Z,146.0
2023-04-12T19:10:01.060Z,138.6
2023-04-12T19:15:01.126Z,131.4
2023-04-12T19:20:01.059Z,121.4
2023-04-12T19:25:01.224Z,103.2
2023-04-12T19:30:01.093Z,104.8
2023-04-12T19:35:01.607Z,108.7
2023-04-12T19:40:01.080Z,111.8
2023-04-12T19:45:01.539Z,119.9
2023-04-12T19:50:01.058Z,123.2
2023-04-12T19:55:02.002Z,126.4
2023-04-12T20:00:01.402Z,127.2
2023-04-12T20:05:01.168Z,125.9
2023-04-12T20:10:01.080Z,128.6
2023-04-12T20:15:06.123Z,140.0
2023-04-12T20:20:01.089Z,151.4
2023-04-12T20:25:01.194Z,165.2
2023-04-12T20:30:06.059Z,180.7
2023-04-12T20:35:01.188Z,222.3
2023-04-12T20:40:01.077Z,230.5
2023-04-12T20:45:01.210Z,229.9
2023-04-12T20:50:01.080Z,248.3
2023-04-12T20:55:01.108Z,268.0
2023-04-12T21:00:01.110Z,260.6
2023-04-12T21:05:01.238Z,287.8
2023-04-12T21:10:06.377Z,327.0
2023-04-12T21:15:02.779Z,350.1
2023-04-12T21:20:01.057Z,305.0
2023-04-12T21:25:01.247Z,301.5
2023-04-12T21:30:01.113Z,315.0
2023-04-12T21:35:06.251Z,314.1
2023-04-12T21:40:01.117Z,301.6
2023-04-12T21:45:01.211Z,337.4
2023-04-12T21:50:01.130Z,321.0
2023-04-12T21:55:01.124Z,276.0
2023-04-12T22:00:01.087Z,228.5
2023-04-12T22:05:01.216Z,221.9
2023-04-12T22:10:01.498Z,187.2
2023-04-12T22:15:01.695Z,160.9
2023-04-12T22:20:01.154Z,139.6
2023-04-12T22:25:01.358Z,135.0
2023-04-12T22:30:01.136Z,84.5
2023-04-12T22:35:07.996Z,124.0
2023-04-12T22:40:01.140Z,154.6
2023-04-12T22:45:01.229Z,195.1
2023-04-12T22:50:01.237Z,210.9
2023-04-12T22:55:01.166Z,238.2
2023-04-12T23:00:01.085Z,221.1
2023-04-12T23:05:01.181Z,206.4
2023-04-12T23:10:01.095Z,179.8
2023-04-12T23:15:01.214Z,162.1
2023-04-12T23:20:01.091Z,138.4
2023-04-12T23:25:01.261Z,107.3
2023-04-12T23:30:01.096Z,113.5
2023-04-12T23:35:06.589Z,132.8
2023-04-12T23:40:01.105Z,162.6
2023-04-12T23:45:01.263Z,201.0
2023-04-12T23:50:01.452Z,255.9
2023-04-12T23:55:01.242Z,261.1
